createdAt,value
2022-09-04T00:02:45.745Z,100.00
2022-09-04T00:05:30.878Z,100.00
2022-09-04T00:08:03.219Z,100.00
2022-09-04T00:10:51.480Z,100.00
2022-09-04T00:13:24.742Z,100.00
2022-09-04T00:16:01.718Z,100.00
2022-09-04T00:18:37.087Z,100.00
2022-09-04T00:21:17.114Z,100.00
2022-09-04T00:23:51.645Z,100.00
2022-09-04T00:26:49.797Z,100.00
2022-09-04T00:29:44.728Z,100.00
2022-09-04T00:32:38.474Z,100.00
2022-09-04T00:35:26.780Z,100.00
2022-09-04T00:38:01.023Z,100.00
2022-09-04T00:40:34.180Z,100.00
2022-09-04T00:43:06.739Z,100.00
2022-09-04T00:45:52.001Z,100.00
2022-09-04T00:48:27.776Z,100.00
2022-09-04T00:51:05.771Z,100.00
2022-09-04T00:53:43.588Z,100.00
2022-09-04T00:56:46.599Z,100.00
2022-09-04T00:59:49.050Z,100.00
2022-09-04T01:02:24.438Z,100.00
2022-09-04T01:05:27.656Z,100.00
2022-09-04T01:08:23.096Z,100.00
2022-09-04T01:11:15.972Z,100.00
2022-09-04T01:13:53.797Z,100.00
2022-09-04T01:16:26.412Z,100.00
2022-09-04T01:19:01.808Z,100.00
2022-09-04T01:21:37.934Z,100.00
2022-09-04T01:24:16.502Z,100.00
2022-09-04T01:27:01.545Z,100.00
2022-09-04T01:29:49.362Z,100.00
2022-09-04T01:32:53.181Z,100.00
2022-09-04T01:35:28.645Z,100.00
2022-09-04T01:38:18.006Z,100.00
2022-09-04T01:40:53.023Z,100.00
2022-09-04T01:43:21.584Z,100.00
2022-09-04T01:45:56.908Z,100.00
2022-09-04T01:48:34.788Z,100.00
2022-09-04T01:51:25.478Z,100.00
2022-09-04T01:54:08.827Z,100.00
2022-09-04T01:56:44.442Z,100.00
2022-09-04T01:59:32.522Z,100.00
2022-09-04T02:02:25.747Z,100.00
2022-09-04T02:05:10.784Z,100.00
2022-09-04T02:07:54.316Z,100.00
2022-09-04T02:10:54.512Z,100.00
2022-09-04T02:13:52.337Z,100.00
2022-09-04T02:16:35.716Z,100.00
2022-09-04T02:19:02.202Z,100.00
2022-09-04T02:21:36.372Z,100.00
2022-09-04T02:24:17.980Z,100.00
2022-09-04T02:26:59.980Z,100.00
2022-09-04T02:29:36.362Z,100.00
2022-09-04T02:32:17.770Z,100.00
2022-09-04T02:35:17.284Z,100.00
2022-09-04T02:38:00.306Z,100.00
2022-09-04T02:40:34.361Z,100.00
2022-09-04T02:43:23.709Z,100.00
2022-09-04T02:46:17.899Z,100.00
2022-09-04T02:49:01.514Z,100.00
2022-09-04T02:52:01.832Z,100.00
2022-09-04T02:55:13.101Z,100.00
2022-09-04T02:58:14.822Z,100.00
2022-09-04T03:00:48.691Z,100.00
2022-09-04T03:03:20.970Z,100.00
2022-09-04T03:05:52.932Z,100.00
2022-09-04T03:08:27.200Z,100.00
2022-09-04T03:11:21.902Z,100.00
2022-09-04T03:14:15.221Z,100.00
2022-09-04T03:17:03.502Z,100.00
2022-09-04T03:19:51.361Z,100.00
2022-09-04T03:22:30.137Z,100.00
2022-09-04T03:25:06.442Z,100.00
2022-09-04T03:27:34.369Z,100.00
2022-09-04T03:30:12.362Z,100.00
2022-09-04T03:32:44.829Z,100.00
2022-09-04T03:35:25.798Z,100.00
2022-09-04T03:38:04.604Z,100.00
2022-09-04T03:40:36.547Z,100.00
2022-09-04T03:43:27.516Z,100.00
2022-09-04T03:46:15.619Z,100.00
2022-09-04T03:49:07.377Z,100.00
2022-09-04T03:51:59.128Z,100.00
2022-09-04T03:54:56.525Z,100.00
2022-09-04T03:58:00.740Z,100.00
2022-09-04T04:00:36.827Z,100.00
2022-09-04T04:03:06.370Z,100.00
2022-09-04T04:05:38.810Z,100.00
2022-09-04T04:08:26.624Z,100.00
2022-09-04T04:11:19.326Z,100.00
2022-09-04T04:14:22.715Z,100.00
2022-09-04T04:17:17.560Z,100.00
2022-09-04T04:19:52.569Z,100.00
2022-09-04T04:22:42.186Z,100.00
2022-09-04T04:25:46.758Z,100.00
2022-09-04T04:28:37.512Z,100.00
2022-09-04T04:31:38.081Z,100.00
2022-09-04T04:34:18.113Z,100.00
2022-09-04T04:37:08.380Z,100.00
2022-09-04T04:40:01.685Z,100.00
2022-09-04T04:42:51.150Z,100.00
2022-09-04T04:45:38.599Z,100.00
2022-09-04T04:48:52.633Z,100.00
2022-09-04T04:51:34.762Z,100.00
2022-09-04T04:54:27.508Z,100.00
2022-09-04T04:56:57.808Z,100.00
2022-09-04T04:59:46.492Z,100.00
2022-09-04T05:02:39.499Z,100.00
2022-09-04T05:05:35.128Z,100.00
2022-09-04T05:08:27.955Z,100.00
2022-09-04T05:11:02.466Z,100.00
2022-09-04T05:13:55.390Z,100.00
2022-09-04T05:16:24.710Z,100.00
2022-09-04T05:19:11.032Z,100.00
2022-09-04T05:21:52.985Z,100.00
2022-09-04T05:25:11.981Z,100.00
2022-09-04T05:27:47.239Z,100.00
2022-09-04T05:30:41.671Z,100.00
2022-09-04T05:33:26.425Z,100.00
2022-09-04T05:36:00.054Z,100.00
2022-09-04T05:38:39.921Z,100.00
2022-09-04T05:41:11.416Z,100.00
2022-09-04T05:44:02.170Z,100.00
2022-09-04T05:46:54.905Z,100.00
2022-09-04T05:49:36.469Z,100.00
2022-09-04T05:52:37.981Z,100.00
2022-09-04T05:55:41.240Z,100.00
2022-09-04T05:58:16.601Z,100.00
2022-09-04T06:01:01.317Z,100.00
2022-09-04T06:04:29.347Z,100.00
2022-09-04T06:07:26.352Z,100.00
2022-09-04T06:10:14.139Z,100.00
2022-09-04T06:12:40.522Z,100.00
2022-09-04T06:15:30.056Z,100.00
2022-09-04T06:18:20.963Z,100.00
2022-09-04T06:21:09.216Z,100.00
2022-09-04T06:24:00.510Z,100.00
2022-09-04T06:26:54.856Z,100.00
2022-09-04T06:29:41.522Z,100.00
2022-09-04T06:32:20.527Z,100.00
2022-09-04T06:35:24.566Z,100.00
2022-09-04T06:37:50.917Z,100.00
2022-09-04T06:40:30.120Z,100.00
2022-09-04T06:43:16.950Z,100.00
2022-09-04T06:46:01.500Z,100.00
2022-09-04T06:48:58.418Z,100.00
2022-09-04T06:51:47.381Z,100.00
2022-09-04T06:54:49.349Z,100.00
2022-09-04T06:57:31.060Z,100.00
2022-09-04T07:00:09.448Z,100.00
2022-09-04T07:02:51.145Z,100.00
2022-09-04T07:05:31.354Z,100.00
2022-09-04T07:08:03.796Z,98.92
2022-09-04T07:10:35.174Z,97.15
2022-09-04T07:13:19.723Z,90.74
2022-09-04T07:16:08.052Z,87.82
2022-09-04T07:19:12.461Z,88.59
2022-09-04T07:22:15.632Z,85.77
2022-09-04T07:25:00.644Z,88.84
2022-09-04T07:28:03.302Z,94.27
2022-09-04T07:30:38.697Z,96.54
2022-09-04T07:33:21.194Z,94.97
2022-09-04T07:36:13.950Z,100.00
2022-09-04T07:39:06.682Z,99.07
2022-09-04T07:41:51.552Z,93.65
2022-09-04T07:44:36.772Z,88.69
2022-09-04T07:47:18.746Z,85.12
2022-09-04T07:49:57.052Z,80.86
2022-09-04T07:52:29.535Z,77.51
2022-09-04T07:55:05.017Z,70.99
2022-09-04T07:57:50.165Z,67.90
2022-09-04T08:00:20.312Z,64.80
2022-09-04T08:03:20.732Z,66.09
2022-09-04T08:05:55.773Z,67.71
2022-09-04T08:08:42.212Z,66.34
2022-09-04T08:11:14.557Z,66.72
2022-09-04T08:14:09.949Z,64.93
2022-09-04T08:16:50.697Z,68.08
2022-09-04T08:19:26.080Z,67.88
2022-09-04T08:21:54.360Z,67.23
2022-09-04T08:24:39.313Z,69.01
2022-09-04T08:27:30.698Z,68.29
2022-09-04T08:30:19.624Z,69.61
2022-09-04T08:33:16.460Z,68.28
2022-09-04T08:35:51.247Z,71.53
2022-09-04T08:38:34.156Z,68.95
2022-09-04T08:41:31.386Z,66.40
2022-09-04T08:44:28.695Z,63.14
2022-09-04T08:47:14.147Z,61.71
2022-09-04T08:49:59.907Z,60.47
2022-09-04T08:52:45.271Z,60.65
2022-09-04T08:55:56.846Z,61.89
2022-09-04T08:58:34.624Z,66.58
2022-09-04T09:01:16.122Z,70.55
2022-09-04T09:03:56.984Z,74.21
2022-09-04T09:06:26.263Z,71.58
2022-09-04T09:09:35.921Z,69.35
2022-09-04T09:12:41.847Z,67.68
2022-09-04T09:16:09.495Z,68.24
2022-09-04T09:18:54.599Z,69.42
2022-09-04T09:21:42.428Z,71.89
2022-09-04T09:24:30.431Z,73.06
2022-09-04T09:27:24.934Z,70.76
2022-09-04T09:30:03.459Z,72.48
2022-09-04T09:32:48.856Z,66.20
2022-09-04T09:35:21.256Z,63.63
2022-09-04T09:38:16.113Z,65.98
2022-09-04T09:41:08.117Z,64.71
2022-09-04T09:44:05.095Z,65.27
2022-09-04T09:47:03.798Z,68.19
2022-09-04T09:49:45.531Z,71.14
2022-09-04T09:52:36.756Z,73.92
2022-09-04T09:55:06.141Z,74.41
2022-09-04T09:57:58.229Z,74.48
2022-09-04T10:00:27.131Z,73.76
2022-09-04T10:03:18.651Z,74.28
2022-09-04T10:06:06.868Z,73.52
2022-09-04T10:08:51.843Z,74.57
2022-09-04T10:11:33.618Z,80.53
2022-09-04T10:14:25.342Z,80.11
2022-09-04T10:17:01.013Z,76.91
2022-09-04T10:19:58.337Z,76.30
2022-09-04T10:22:30.470Z,72.94
2022-09-04T10:25:21.536Z,67.18
2022-09-04T10:28:00.104Z,68.25
2022-09-04T10:30:56.944Z,70.73
2022-09-04T10:33:32.346Z,68.69
2022-09-04T10:36:01.775Z,72.80
2022-09-04T10:38:45.385Z,70.52
2022-09-04T10:41:44.057Z,70.42
2022-09-04T10:44:45.776Z,75.57
2022-09-04T10:47:25.702Z,73.23
2022-09-04T10:50:16.786Z,69.12
2022-09-04T10:53:11.139Z,68.93
2022-09-04T10:55:58.202Z,66.70
2022-09-04T10:58:47.534Z,67.08
2022-09-04T11:01:25.677Z,65.20
2022-09-04T11:04:19.711Z,68.07
2022-09-04T11:07:01.166Z,71.98
2022-09-04T11:09:49.217Z,71.45
2022-09-04T11:12:34.320Z,68.10
2022-09-04T11:15:18.171Z,68.79
2022-09-04T11:18:13.605Z,73.00
2022-09-04T11:21:01.805Z,69.52
2022-09-04T11:23:58.841Z,70.13
2022-09-04T11:26:56.325Z,69.69
2022-09-04T11:29:37.808Z,71.91
2022-09-04T11:32:17.832Z,76.06
2022-09-04T11:35:02.766Z,77.60
2022-09-04T11:37:41.322Z,79.00
2022-09-04T11:40:23.182Z,81.77
2022-09-04T11:43:03.558Z,85.69
2022-09-04T11:46:15.942Z,89.48
2022-09-04T11:49:03.905Z,96.18
2022-09-04T11:52:02.281Z,95.95
2022-09-04T11:54:37.669Z,100.00
2022-09-04T11:57:22.581Z,100.00
2022-09-04T12:00:04.214Z,100.00
2022-09-04T12:02:52.632Z,100.00
2022-09-04T12:05:43.227Z,95.87
2022-09-04T12:08:55.146Z,100.00
2022-09-04T12:11:58.524Z,100.00
2022-09-04T12:14:27.685Z,100.00
2022-09-04T12:17:31.808Z,100.00
2022-09-04T12:20:32.781Z,100.00
2022-09-04T12:23:30.153Z,100.00
2022-09-04T12:26:14.169Z,100.00
2022-09-04T12:28:52.379Z,100.00
2022-09-04T12:31:54.488Z,100.00
2022-09-04T12:34:23.540Z,100.00
2022-09-04T12:37:22.519Z,100.00
2022-09-04T12:39:54.914Z,100.00
2022-09-04T12:42:45.561Z,100.00
2022-09-04T12:45:43.209Z,100.00
2022-09-04T12:48:15.650Z,100.00
2022-09-04T12:50:45.155Z,100.00
2022-09-04T12:53:17.673Z,100.00
2022-09-04T12:55:53.061Z,100.00
2022-09-04T12:58:35.729Z,100.00
2022-09-04T13:01:16.725Z,100.00
2022-09-04T13:03:43.298Z,100.00
2022-09-04T13:06:42.485Z,100.00
2022-09-04T13:09:24.379Z,100.00
2022-09-04T13:12:38.663Z,100.00
2022-09-04T13:15:20.463Z,100.00
2022-09-04T13:17:54.663Z,100.00
2022-09-04T13:20:55.115Z,100.00
2022-09-04T13:23:42.756Z,100.00
2022-09-04T13:26:51.650Z,100.00
2022-09-04T13:29:36.404Z,100.00
2022-09-04T13:32:40.803Z,100.00
2022-09-04T13:35:28.201Z,100.00
2022-09-04T13:37:54.694Z,100.00
2022-09-04T13:40:32.540Z,100.00
2022-09-04T13:43:26.085Z,100.00
2022-09-04T13:45:57.817Z,100.00
2022-09-04T13:48:36.747Z,100.00
2022-09-04T13:51:13.864Z,100.00
2022-09-04T13:54:11.484Z,100.00
2022-09-04T13:56:57.937Z,100.00
2022-09-04T13:59:25.629Z,100.00
2022-09-04T14:01:56.615Z,100.00
2022-09-04T14:04:29.914Z,100.00
2022-09-04T14:07:00.139Z,100.00
2022-09-04T14:09:26.886Z,100.00
2022-09-04T14:12:18.506Z,100.00
2022-09-04T14:15:18.678Z,100.00
2022-09-04T14:17:56.232Z,100.00
2022-09-04T14:20:42.565Z,100.00
2022-09-04T14:23:48.473Z,100.00
2022-09-04T14:26:38.529Z,100.00
2022-09-04T14:29:31.064Z,100.00
2022-09-04T14:32:21.550Z,100.00
2022-09-04T14:35:22.088Z,100.00
2022-09-04T14:38:16.238Z,100.00
2022-09-04T14:40:58.735Z,100.00
2022-09-04T14:43:40.394Z,100.00
2022-09-04T14:46:20.511Z,100.00
2022-09-04T14:48:49.645Z,100.00
2022-09-04T14:51:29.726Z,100.00
2022-09-04T14:53:57.524Z,100.00
2022-09-04T14:56:50.740Z,100.00
2022-09-04T14:59:35.950Z,100.00
2022-09-04T15:02:08.515Z,100.00
2022-09-04T15:04:59.043Z,100.00
2022-09-04T15:07:44.128Z,100.00
2022-09-04T15:10:55.239Z,100.00
2022-09-04T15:13:27.570Z,100.00
2022-09-04T15:16:08.769Z,100.00
2022-09-04T15:18:54.516Z,100.00
2022-09-04T15:21:30.036Z,100.00
2022-09-04T15:24:23.252Z,100.00
2022-09-04T15:27:02.200Z,100.00
2022-09-04T15:29:39.020Z,100.00
2022-09-04T15:32:13.869Z,100.00
2022-09-04T15:34:42.020Z,100.00
2022-09-04T15:37:11.718Z,100.00
2022-09-04T15:40:03.377Z,100.00
2022-09-04T15:42:35.873Z,100.00
2022-09-04T15:45:11.512Z,100.00
2022-09-04T15:48:16.940Z,100.00
2022-09-04T15:51:12.487Z,100.00
2022-09-04T15:53:45.642Z,100.00
2022-09-04T15:56:21.230Z,100.00
2022-09-04T15:58:51.784Z,100.00
2022-09-04T16:01:24.627Z,100.00
2022-09-04T16:04:09.960Z,100.00
2022-09-04T16:06:51.706Z,100.00
2022-09-04T16:09:30.377Z,100.00
2022-09-04T16:12:12.601Z,100.00
2022-09-04T16:14:46.285Z,100.00
2022-09-04T16:17:20.555Z,100.00
2022-09-04T16:20:09.179Z,100.00
2022-09-04T16:22:44.018Z,100.00
2022-09-04T16:25:32.305Z,100.00
2022-09-04T16:28:38.726Z,100.00
2022-09-04T16:31:22.718Z,100.00
2022-09-04T16:33:54.070Z,100.00
2022-09-04T16:36:26.731Z,100.00
2022-09-04T16:38:56.146Z,100.00
2022-09-04T16:41:40.686Z,100.00
2022-09-04T16:44:16.065Z,100.00
2022-09-04T16:46:59.885Z,100.00
2022-09-04T16:49:51.332Z,100.00
2022-09-04T16:52:17.669Z,100.00
2022-09-04T16:54:48.506Z,100.00
2022-09-04T16:57:17.765Z,100.00
2022-09-04T16:59:59.257Z,100.00
2022-09-04T17:02:36.295Z,100.00
2022-09-04T17:05:28.436Z,100.00
2022-09-04T17:07:59.526Z,100.00
2022-09-04T17:10:36.367Z,100.00
2022-09-04T17:13:19.871Z,100.00
2022-09-04T17:16:21.108Z,100.00
2022-09-04T17:18:50.801Z,100.00
2022-09-04T17:26:49.558Z,100.00
2022-09-04T17:29:04.607Z,100.00
2022-09-04T17:29:17.546Z,100.00
2022-09-04T17:30:06.248Z,100.00
2022-09-04T17:39:03.150Z,100.00
2022-09-04T17:40:37.771Z,100.00
2022-09-04T17:40:48.032Z,100.00
2022-09-04T17:41:53.127Z,100.00
2022-09-04T17:44:42.102Z,100.00
2022-09-04T17:47:23.529Z,100.00
2022-09-04T17:49:52.883Z,100.00
2022-09-04T17:52:26.609Z,100.00
2022-09-04T17:54:56.441Z,100.00
2022-09-04T17:57:49.551Z,100.00
2022-09-04T18:00:22.951Z,100.00
2022-09-04T18:03:01.734Z,100.00
2022-09-04T18:05:49.193Z,100.00
2022-09-04T18:08:23.281Z,100.00
2022-09-04T18:11:03.233Z,100.00
2022-09-04T18:13:38.798Z,100.00
2022-09-04T18:16:14.706Z,100.00
2022-09-04T18:18:53.281Z,100.00
2022-09-04T18:21:25.829Z,100.00
2022-09-04T18:23:57.976Z,100.00
2022-09-04T18:26:37.086Z,100.00
2022-09-04T18:30:48.365Z,100.00
2022-09-04T18:37:20.594Z,100.00
2022-09-04T18:37:23.986Z,100.00
2022-09-04T18:38:01.677Z,100.00
2022-09-04T18:43:40.011Z,100.00
2022-09-04T18:50:31.892Z,100.00
2022-09-04T18:50:49.355Z,100.00
2022-09-04T18:50:50.777Z,100.00
2022-09-04T18:52:15.690Z,100.00
2022-09-04T18:54:48.166Z,100.00
2022-09-04T18:57:45.617Z,100.00
2022-09-04T19:00:29.716Z,100.00
2022-09-04T19:03:20.208Z,100.00
2022-09-04T19:05:51.018Z,100.00
2022-09-04T19:08:25.773Z,100.00
2022-09-04T19:11:00.332Z,100.00
2022-09-04T19:13:48.693Z,100.00
2022-09-04T19:16:28.455Z,100.00
2022-09-04T19:19:05.333Z,100.00
2022-09-04T19:21:41.883Z,100.00
2022-09-04T19:24:13.598Z,100.00
2022-09-04T19:27:26.433Z,100.00
2022-09-04T19:30:17.789Z,100.00
2022-09-04T19:32:45.437Z,100.00
2022-09-04T19:35:35.019Z,100.00
2022-09-04T19:42:52.275Z,100.00
2022-09-04T19:46:02.489Z,100.00
2022-09-04T19:46:05.849Z,100.00
2022-09-04T19:47:34.490Z,100.00
2022-09-04T19:53:24.059Z,100.00
2022-09-04T19:53:46.918Z,100.00
2022-09-04T19:56:28.224Z,100.00
2022-09-04T19:59:13.988Z,100.00
2022-09-04T20:01:51.140Z,100.00
2022-09-04T20:04:24.987Z,100.00
2022-09-04T20:06:58.077Z,100.00
2022-09-04T20:09:38.134Z,100.00
2022-09-04T20:12:19.519Z,100.00
2022-09-04T20:15:01.140Z,100.00
2022-09-04T20:17:54.320Z,100.00
2022-09-04T20:20:25.073Z,100.00
2022-09-04T20:23:34.229Z,100.00
2022-09-04T20:25:58.191Z,100.00
2022-09-04T20:28:33.179Z,100.00
2022-09-04T20:31:36.487Z,100.00
2022-09-04T20:34:26.854Z,100.00
2022-09-04T20:37:08.945Z,100.00
2022-09-04T20:39:43.922Z,100.00
2022-09-04T20:42:21.320Z,100.00
2022-09-04T20:46:14.911Z,100.00
2022-09-04T20:52:44.598Z,100.00
2022-09-04T20:52:57.423Z,100.00
2022-09-04T20:54:02.356Z,100.00
2022-09-04T20:59:45.292Z,100.00
2022-09-04T21:03:19.260Z,100.00
2022-09-04T21:03:20.471Z,100.00
2022-09-04T21:05:54.290Z,100.00
2022-09-04T21:08:44.913Z,100.00
2022-09-04T21:11:39.284Z,100.00
2022-09-04T21:14:26.969Z,100.00
2022-09-04T21:17:34.512Z,100.00
2022-09-04T21:20:20.694Z,100.00
2022-09-04T21:23:05.323Z,100.00
2022-09-04T21:25:58.037Z,100.00
2022-09-04T21:28:39.456Z,100.00
2022-09-04T21:31:19.839Z,100.00
2022-09-04T21:34:10.685Z,100.00
2022-09-04T21:36:48.470Z,100.00
2022-09-04T21:39:44.073Z,100.00
2022-09-04T21:42:19.781Z,100.00
2022-09-04T21:45:24.709Z,100.00
2022-09-04T21:48:06.252Z,100.00
2022-09-04T21:50:55.211Z,100.00
2022-09-04T21:53:47.824Z,100.00
2022-09-04T22:02:25.186Z,100.00
2022-09-04T22:02:35.289Z,100.00
2022-09-04T22:02:49.436Z,100.00
2022-09-04T22:05:14.001Z,100.00
2022-09-04T22:12:13.128Z,100.00
2022-09-04T22:13:29.477Z,100.00
2022-09-04T22:14:03.112Z,100.00
2022-09-04T22:17:03.605Z,100.00
2022-09-04T22:19:41.390Z,100.00
2022-09-04T22:22:28.370Z,100.00
2022-09-04T22:25:07.353Z,100.00
2022-09-04T22:28:08.012Z,100.00
2022-09-04T22:31:15.030Z,100.00
2022-09-04T22:34:25.257Z,100.00
2022-09-04T22:37:30.500Z,100.00
2022-09-04T22:40:24.463Z,100.00
2022-09-04T22:43:06.078Z,100.00
2022-09-04T22:46:25.598Z,100.00
2022-09-04T22:49:12.411Z,100.00
2022-09-04T22:52:24.365Z,100.00
2022-09-04T22:55:36.514Z,100.00
2022-09-04T22:58:19.459Z,100.00
2022-09-04T23:01:16.997Z,100.00
2022-09-04T23:03:43.458Z,100.00
2022-09-04T23:09:44.623Z,100.00
2022-09-04T23:13:47.650Z,100.00
2022-09-04T23:13:52.519Z,100.00
2022-09-04T23:15:57.121Z,100.00
2022-09-04T23:21:15.295Z,100.00
2022-09-04T23:26:37.153Z,100.00
2022-09-04T23:26:43.057Z,100.00
2022-09-04T23:27:41.764Z,100.00
2022-09-04T23:30:13.478Z,100.00
2022-09-04T23:33:27.186Z,100.00
2022-09-04T23:36:00.722Z,100.00
2022-09-04T23:38:42.386Z,100.00
2022-09-04T23:41:35.689Z,100.00
2022-09-04T23:44:41.000Z,100.00
2022-09-04T23:47:48.561Z,100.00
2022-09-04T23:50:21.652Z,100.00
2022-09-04T23:53:20.210Z,100.00
2022-09-04T23:56:18.832Z,100.00
2022-09-04T23:59:02.985Z,100.00
